Terminal Aerodrome Forecast
Issued by NWS

Home | Current Version | Previous Version | Text Only | Print | Product List | Glossary On
Versions: 1 2 3 4 5 6 7 8 9 10 11 12 13 14 15 16 17 18 19 20 21 22 23
000
FTUS46 KSGX 022103 AAA
TAFSAN
TAF AMD
KSAN 022103Z 0221/0324 32011KT P6SM SKC
     FM030100 02004KT P6SM SKC WS010/06025KT
     FM032000 31010KT P6SM SKC=

USA.gov is the U.S. government's official web portal to all federal, state and local government web resources and services.